• Join FlightAware (Why Join?)
  • Login
  • US Flag 
08:51PM EST


 

Airport Tracker/Info


-or-


 

Live Flight TrackerFlight Track Log ✈ EJA951 ✈ 02-Nov-2013 ✈ KMSY - KOMA

Flight Track Log - Related Links

Times and Time Zones

All times are in EDT time to prevent confusion due to time zone crossing. See the EJA951 flight status page for this flight to view local times or setup timezone preferences in your user account.

Time Position Orientation Groundspeed Altitude Reporting Facility
EDT Latitude Longitude Course Direction KTS MPH feet Rate Location/Type
07:22AM 29.9958 -90.2844 288° West 167 192 400  Level Houston Center
07:23AM 30.0006 -90.3008 288° West 168 193 1,300 2,400 Climbing Houston Center
07:23AM 30.0056 -90.3194 287° West 187 215 2,200 3,480 Climbing Houston Center
07:24AM 30.0392 -90.3403 332° Northwest 227 261 4,800 3,720 Climbing Houston Center
07:24AM 30.0639 -90.3450 351° North 232 267 6,000 3,960 Climbing Houston Center
07:25AM 30.1394 -90.3517 356° North 265 305 10,600 3,420 Climbing Houston Center
07:26AM 30.2319 -90.3514 360° North 327 376 12,900 1,920 Climbing Houston Center
07:27AM 30.3375 -90.3525 359° North 367 422 14,500 1,740 Climbing Houston Center
07:28AM 30.4500 -90.3503 North 393 452 16,500 1,680 Climbing Houston Center
07:29AM 30.5633 -90.3458 North 403 464 17,900 1,380 Climbing Houston Center
07:30AM 30.6803 -90.3483 359° North 414 476 19,400 1,380 Climbing Houston Center
07:31AM 30.7861 -90.3908 341° North 404 465 20,800 1,380 Climbing Houston Center
07:32AM 30.8894 -90.4356 340° North 398 458 22,300 1,560 Climbing Houston Center
07:33AM 30.9942 -90.4789 340° North 399 459 24,000 1,560 Climbing Houston Center
07:34AM 31.0986 -90.5217 341° North 398 458 25,500 1,200 Climbing Houston Center
07:35AM 31.2017 -90.5667 340° North 396 456 26,500 1,080 Climbing Houston Center
07:36AM 31.3303 -90.6192 341° North 404 465 27,700 1,080 Climbing Houston Center
07:37AM 31.4381 -90.6647 340° North 409 471 28,700 960 Climbing Houston Center
07:38AM 31.5461 -90.7103 340° North 412 474 29,700 1,020 Climbing Houston Center
07:39AM 31.6569 -90.7561 341° North 419 482 30,800 1,020 Climbing Houston Center
07:40AM 31.7661 -90.8014 341° North 417 480 31,800 540 Climbing Houston Center
07:41AM 31.8658 -90.8453 340° North 420 483 32,000 300 Climbing Houston Center
07:42AM 31.9819 -90.8950 340° North 439 505 32,500 600 Climbing Houston Center
07:43AM 32.0997 -90.9439 341° North 447 514 33,300 1,140 Climbing Houston Center
07:44AM 32.2136 -90.9922 340° North 439 505 34,900 1,140 Climbing Houston Center
07:45AM 32.3242 -91.0389 340° North 427 491 35,600 840 Climbing Houston Center
07:46AM 32.4386 -91.0883 340° North 435 501 36,600 960 Climbing Houston Center
07:47AM 32.5608 -91.1436 339° North 427 491 37,500 1,080 Climbing Memphis Center
07:48AM 32.6756 -91.1939 340° North 433 498 38,700 1,200 Climbing Memphis Center
07:49AM 32.7900 -91.2419 341° North 433 498 40,000 1,320 Climbing Memphis Center
07:50AM 32.9022 -91.2900 340° North 428 493 41,400 1,380 Climbing Memphis Center
07:51AM 33.0106 -91.3358 340° North 422 486 42,800 780 Climbing Memphis Center
07:52AM 33.1103 -91.3792 340° North 422 486 43,000 60 Climbing Memphis Center
07:53AM 33.2269 -91.4300 340° North 434 499 43,000  Level Memphis Center
07:54AM 33.3453 -91.4836 339° North 440 506 43,000  Level Memphis Center
07:55AM 33.4639 -91.5350 340° North 446 513 43,000  Level Memphis Center
07:56AM 33.5803 -91.5889 339° North 451 519 43,000  Level Memphis Center
07:57AM 33.7008 -91.6406 340° North 451 519 43,000  Level Memphis Center
07:58AM 33.8317 -91.6975 340° North 451 519 43,000  Level Memphis Center
07:59AM 33.9564 -91.7444 343° North 451 519 43,000  Level Memphis Center
08:00AM 34.0725 -91.7992 339° North 451 519 43,000  Level Memphis Center
08:01AM 34.1908 -91.8539 339° North 451 519 43,000  Level Memphis Center
08:02AM 34.3092 -91.9061 340° North 451 519 43,000  Level Memphis Center
08:03AM 34.4275 -91.9611 339° North 451 519 43,000  Level Memphis Center
08:04AM 34.5500 -92.0164 340° North 451 519 43,000  Level Memphis Center
08:05AM 34.6681 -92.0692 340° North 451 519 43,000  Level Memphis Center
08:06AM 34.7864 -92.1222 340° North 451 519 43,000  Level Memphis Center
08:07AM 34.9044 -92.1778 339° North 446 513 43,000  Level Memphis Center
08:08AM 35.0206 -92.2283 340° North 446 513 43,000  Level Memphis Center
08:09AM 35.1344 -92.2842 338° Northwest 446 513 43,000  Level Memphis Center
08:10AM 35.2483 -92.3325 341° North 446 513 43,000  Level Memphis Center
08:11AM 35.3603 -92.3861 339° North 440 506 43,000  Level Memphis Center
08:12AM 35.4761 -92.4400 339° North 435 501 43,000  Level Memphis Center
08:13AM 35.5878 -92.4914 339° North 435 501 43,000  Level Memphis Center
08:14AM 35.6892 -92.5400 339° North 429 494 43,000  Level Memphis Center
08:15AM 35.8031 -92.5914 340° North 429 494 43,000  Level Memphis Center
08:16AM 35.9147 -92.6458 338° Northwest 429 494 43,000  Level Memphis Center
08:17AM 36.0283 -92.6978 340° North 429 494 43,000  Level Memphis Center
08:18AM 36.1400 -92.7497 339° North 429 494 43,000  Level Memphis Center
08:20AM 36.4058 -92.8767 339° North 429 494 43,000  Level Kansas City Center
08:21AM 36.5169 -92.9317 338° Northwest 429 494 43,000  Level Kansas City Center
08:22AM 36.6250 -92.9817 340° North 427 491 43,000  Level Kansas City Center
08:23AM 36.7378 -93.0378 338° Northwest 429 494 43,000  Level Kansas City Center
08:25AM 36.8503 -93.0911 339° North 430 495 43,000  Level Kansas City Center
08:26AM 36.9600 -93.1417 340° North 424 488 43,000  Level Kansas City Center
08:27AM 37.0725 -93.1947 339° North 424 488 43,000  Level Kansas City Center
08:28AM 37.2067 -93.2608 339° North 426 490 43,000  Level Kansas City Center
08:29AM 37.3181 -93.3153 339° North 427 491 43,000  Level Kansas City Center
08:30AM 37.4244 -93.3836 333° Northwest 420 483 43,000  Level Kansas City Center
08:31AM 37.5244 -93.4536 331° Northwest 410 472 43,000  Level Kansas City Center
08:32AM 37.6267 -93.5256 331° Northwest 414 476 43,000  Level Kansas City Center
08:33AM 37.7281 -93.5983 330° Northwest 415 478 43,000  Level Kansas City Center
08:34AM 37.8289 -93.6686 331° Northwest 412 474 43,000  Level Kansas City Center
08:35AM 37.9275 -93.7408 330° Northwest 408 470 43,000  Level Kansas City Center
08:36AM 38.0272 -93.8122 331° Northwest 408 470 43,000  Level Kansas City Center
08:37AM 38.1267 -93.8833 331° Northwest 408 470 43,000  Level Kansas City Center
08:38AM 38.2256 -93.9553 330° Northwest 408 470 43,000  Level Kansas City Center
08:39AM 38.3253 -94.0264 331° Northwest 408 470 43,000  Level Kansas City Center
08:40AM 38.4239 -94.0986 330° Northwest 406 467 43,000  Level Kansas City Center
08:41AM 38.5183 -94.1669 330° Northwest 407 468 43,000 -540 Level Kansas City Center
08:42AM 38.6292 -94.2472 331° Northwest 410 472 42,000 -1,020 Descending Kansas City Center
08:43AM 38.7319 -94.3031 337° Northwest 417 480 41,000 -960 Descending Kansas City Center
08:44AM 38.8358 -94.3536 339° North 417 480 40,100 -1,020 Descending Kansas City Center
08:45AM 38.9581 -94.4147 339° North 422 486 39,000 -1,080 Descending Kansas City Center
08:46AM 39.0633 -94.4675 339° North 425 489 38,000 -540 Descending Kansas City Center
08:47AM 39.1658 -94.5183 339° North 416 479 38,000 -1,140 Level Kansas City Center
08:48AM 39.2808 -94.5864 335° Northwest 410 472 35,800 -1,920 Descending Kansas City Center
08:49AM 39.3789 -94.6469 334° Northwest 408 470 34,100 -1,740 Descending Kansas City Center
08:50AM 39.4844 -94.7150 334° Northwest 383 441 32,300 -1,680 Descending Kansas City Center
08:51AM 39.5761 -94.7725 334° Northwest 383 441 30,700 -1,380 Descending Kansas City Center
08:52AM 39.6653 -94.8292 334° Northwest 376 433 29,600 -1,200 Descending Kansas City Center
08:53AM 39.7658 -94.8933 334° Northwest 362 417 28,300 -1,140 Descending Kansas City Center
08:54AM 39.8522 -94.9481 334° Northwest 362 417 27,300 -1,080 Descending Kansas City Center
08:55AM 39.9550 -95.0136 334° Northwest 368 423 26,200 -1,020 Descending Kansas City Center
08:56AM 40.0439 -95.0714 334° Northwest 373 429 25,300 -960 Descending Kansas City Center
08:57AM 40.1319 -95.1275 334° Northwest 369 425 24,300 -660 Descending Kansas City Center
08:58AM 40.2303 -95.1914 334° Northwest 356 410 24,000 -600 Descending Kansas City Center
08:59AM 40.2864 -95.2261 335° Northwest 357 411 23,200 -1,800 Descending Minneapolis Center
09:00AM 40.3911 -95.2950 333° Northwest 352 405 20,800 -2,220 Descending Minneapolis Center
09:01AM 40.4797 -95.3303 343° North 336 387 18,900 -1,980 Descending Minneapolis Center
09:01AM 40.4742 -95.3500 250° West 340 391 18,800 -1,800 Descending Minneapolis Center
09:02AM 40.5567 -95.4022 334° Northwest 332 382 17,000 -1,920 Descending Minneapolis Center
09:03AM 40.6361 -95.4533 334° Northwest 323 372 15,000 -1,920 Descending Minneapolis Center
09:04AM 40.6864 -95.4697 346° North 284 327 13,900 -1,680 Descending Minneapolis Center
09:04AM 40.7069 -95.4950 317° Northwest 293 337 13,300 -1,680 Descending Minneapolis Center
09:05AM 40.7564 -95.5136 344° North 243 280 12,200 -1,500 Descending Minneapolis Center
09:05AM 40.7686 -95.5331 310° West 266 306 11,800 -1,380 Descending Minneapolis Center
09:06AM 40.8178 -95.5528 343° North 227 261 10,700 -1,380 Descending Minneapolis Center
09:06AM 40.8261 -95.5686 305° West 247 284 10,400 -1,380 Descending Minneapolis Center
09:07AM 40.8750 -95.5903 341° North 223 257 9,300 -1,380 Descending Minneapolis Center
09:07AM 40.8808 -95.6033 301° West 232 267 9,000 -1,380 Descending Minneapolis Center
09:08AM 40.9272 -95.6225 343° North 213 245 7,900 -1,380 Descending Minneapolis Center
09:08AM 40.9350 -95.6347 310° West 218 251 7,600 -1,500 Descending Minneapolis Center
09:09AM 40.9800 -95.6575 339° North 209 241 6,400 -1,380 Descending Minneapolis Center
09:09AM 40.9878 -95.6672 317° Northwest 213 245 6,200 -1,200 Descending Minneapolis Center
09:10AM 41.0325 -95.6928 337° Northwest 203 234 5,200 -1,140 Descending Minneapolis Center
09:10AM 41.0381 -95.6986 322° Northwest 207 238 5,100 -1,140 Descending Minneapolis Center
09:11AM 41.0808 -95.7231 337° Northwest 190 219 4,100 -1,200 Descending Minneapolis Center
09:11AM 41.0847 -95.7283 314° West 198 228 3,900 -1,200 Descending Minneapolis Center
09:12AM 41.1267 -95.7536 336° Northwest 188 216 2,900 -1,140 Descending Minneapolis Center
09:12AM 41.1328 -95.7572 336° Northwest 192 221 2,800 -120 Descending Minneapolis Center
09:13AM 41.1706 -95.7817 334° Northwest 171 197 2,800  Level Minneapolis Center
09:13AM 41.1856 -95.7881 342° North 183 211 2,800  Level Minneapolis Center
09:14AM 41.2075 -95.8050 330° Northwest 138 159 2,800  Level Minneapolis Center
09:14AM 41.2186 -95.8106 339° North 159 183 2,800 -420 Level Minneapolis Center
09:15AM 41.2386 -95.8319 321° Northwest 126 145 2,400 -600 Descending Minneapolis Center
09:15AM 41.2464 -95.8358 339° North 138 159 2,200 -600 Descending Minneapolis Center
09:16AM 41.2633 -95.8567 317° Northwest 104 120 1,800 -540 Descending Minneapolis Center
09:16AM 41.2703 -95.8600 340° North 122 140 1,700 -660 Descending Minneapolis Center
09:17AM 41.2858 -95.8789 318° Northwest 108 124 1,200 -720 Descending Minneapolis Center
09:17AM 41.2953 -95.8828 343° North 114 131 1,000 -480 Descending Minneapolis Center
09:19AM 41.3000 -95.8833 346° North  Level FlightAware Approximate